createdAt,value
2023-04-28T00:01:45.916Z,7.70
2023-04-28T00:04:13.597Z,7.40
2023-04-28T00:06:41.388Z,7.60
2023-04-28T00:09:11.520Z,5.20
2023-04-28T00:11:38.857Z,6.70
2023-04-28T00:14:06.421Z,7.50
2023-04-28T00:16:33.570Z,8.30
2023-04-28T00:19:00.797Z,7.50
2023-04-28T00:21:28.922Z,9.60
2023-04-28T00:23:56.336Z,9.90
2023-04-28T00:26:23.488Z,8.00
2023-04-28T00:28:50.908Z,6.40
2023-04-28T00:31:18.098Z,7.60
2023-04-28T00:33:45.566Z,8.70
2023-04-28T00:36:12.715Z,8.20
2023-04-28T00:38:39.836Z,6.80
2023-04-28T00:41:07.413Z,9.90
2023-04-28T00:43:45.122Z,8.40
2023-04-28T00:46:13.972Z,6.80
2023-04-28T00:48:41.058Z,6.20
2023-04-28T00:51:08.153Z,5.80
2023-04-28T00:53:35.220Z,6.30
2023-04-28T00:56:02.219Z,7.30
2023-04-28T00:58:30.001Z,6.20
2023-04-28T01:01:08.180Z,6.80
2023-04-28T01:03:38.152Z,6.10
2023-04-28T01:06:06.714Z,7.50
2023-04-28T01:08:35.196Z,5.60
2023-04-28T01:11:02.980Z,6.20
2023-04-28T01:13:53.178Z,5.30
2023-04-28T01:16:20.809Z,5.10
2023-04-28T01:18:48.131Z,6.10
2023-04-28T01:21:15.263Z,4.00
2023-04-28T01:23:46.609Z,5.20
2023-04-28T01:26:13.663Z,6.30
2023-04-28T01:28:40.675Z,5.00
2023-04-28T01:31:07.740Z,5.20
2023-04-28T01:33:34.766Z,6.10
2023-04-28T01:36:01.954Z,4.60
2023-04-28T01:38:28.981Z,5.00
2023-04-28T01:40:56.590Z,6.80
2023-04-28T01:43:23.578Z,6.00
2023-04-28T01:45:52.340Z,6.10
2023-04-28T01:48:19.342Z,7.50
2023-04-28T01:50:46.739Z,5.10
2023-04-28T01:53:14.638Z,6.10
2023-04-28T01:55:41.668Z,7.10
2023-04-28T01:58:08.840Z,7.20
2023-04-28T02:00:36.194Z,6.00
2023-04-28T02:03:03.502Z,7.80
2023-04-28T02:05:30.550Z,7.90
2023-04-28T02:07:57.570Z,6.80
2023-04-28T02:10:25.672Z,8.30
2023-04-28T02:12:52.659Z,7.10
2023-04-28T02:15:19.820Z,6.90
2023-04-28T02:17:47.405Z,7.10
2023-04-28T02:20:14.830Z,7.00
2023-04-28T02:22:41.885Z,7.70
2023-04-28T02:25:09.193Z,5.90
2023-04-28T02:27:38.392Z,7.10
2023-04-28T02:30:06.327Z,6.40
2023-04-28T02:32:33.506Z,8.00
2023-04-28T02:35:00.536Z,11.40
2023-04-28T02:37:27.716Z,6.60
2023-04-28T02:39:54.697Z,6.80
2023-04-28T02:42:22.700Z,7.80
2023-04-28T02:44:49.812Z,10.80
2023-04-28T02:47:16.828Z,8.30
2023-04-28T02:49:44.031Z,8.40
2023-04-28T02:52:11.337Z,9.10
2023-04-28T02:54:38.340Z,6.00
2023-04-28T02:57:05.684Z,8.00
2023-04-28T02:59:32.862Z,6.80
2023-04-28T03:02:00.059Z,8.20
2023-04-28T03:04:27.632Z,8.70
2023-04-28T03:06:54.770Z,7.80
2023-04-28T03:09:21.859Z,7.00
2023-04-28T03:11:49.254Z,10.30
2023-04-28T03:14:16.478Z,7.10
2023-04-28T03:16:43.926Z,6.30
2023-04-28T03:19:11.270Z,7.80
2023-04-28T03:21:38.305Z,6.90
2023-04-28T03:24:06.056Z,7.70
2023-04-28T03:26:33.276Z,9.50
2023-04-28T03:29:00.543Z,6.00
2023-04-28T03:31:27.705Z,7.30
2023-04-28T03:33:55.012Z,9.00
2023-04-28T03:36:22.320Z,9.10
2023-04-28T03:38:49.340Z,7.50
2023-04-28T03:41:16.353Z,5.90
2023-04-28T03:44:09.188Z,5.60
2023-04-28T03:46:45.438Z,6.80
2023-04-28T03:49:12.697Z,7.80
2023-04-28T03:51:39.701Z,8.40
2023-04-28T03:54:07.209Z,6.90
2023-04-28T03:56:34.647Z,6.50
2023-04-28T03:59:02.156Z,7.20
2023-04-28T04:01:29.415Z,8.20
2023-04-28T04:03:56.726Z,8.20
2023-04-28T04:06:23.887Z,7.10
2023-04-28T04:08:51.119Z,6.80
2023-04-28T04:11:18.144Z,6.40
2023-04-28T04:13:45.150Z,6.10
2023-04-28T04:16:16.116Z,7.80
2023-04-28T04:18:43.422Z,8.70
2023-04-28T04:21:22.822Z,7.40
2023-04-28T04:23:50.996Z,7.00
2023-04-28T04:26:17.991Z,6.70
2023-04-28T04:28:45.098Z,9.10
2023-04-28T04:31:12.774Z,4.90
2023-04-28T04:33:39.736Z,5.70
2023-04-28T04:37:25.129Z,7.30
2023-04-28T04:40:01.048Z,7.50
2023-04-28T04:42:28.592Z,8.60
2023-04-28T04:45:18.075Z,9.50
2023-04-28T04:47:45.289Z,6.50
2023-04-28T04:50:12.812Z,10.20
2023-04-28T04:52:40.024Z,9.80
2023-04-28T04:55:08.121Z,7.30
2023-04-28T04:57:35.233Z,7.10
2023-04-28T05:00:19.287Z,6.90
2023-04-28T05:02:46.673Z,10.80
2023-04-28T05:05:21.305Z,6.60
2023-04-28T05:08:09.711Z,6.80
2023-04-28T05:10:37.122Z,6.10
2023-04-28T05:13:04.672Z,7.80
2023-04-28T05:15:31.985Z,8.30
2023-04-28T05:18:28.023Z,6.10
2023-04-28T05:20:55.377Z,6.20
2023-04-28T05:23:23.612Z,6.00
2023-04-28T05:25:51.514Z,7.60
2023-04-28T05:28:20.125Z,6.40
2023-04-28T05:30:48.569Z,6.80
2023-04-28T05:33:16.191Z,6.40
2023-04-28T05:35:43.627Z,6.50
2023-04-28T05:38:10.764Z,6.90
2023-04-28T05:40:38.115Z,5.50
2023-04-28T05:43:05.240Z,7.00
2023-04-28T05:45:32.318Z,7.10
2023-04-28T05:47:59.879Z,7.60
2023-04-28T05:50:27.635Z,6.10
2023-04-28T05:52:54.657Z,7.70
2023-04-28T05:55:22.331Z,5.20
2023-04-28T05:57:53.324Z,7.60
2023-04-28T06:00:20.726Z,12.80
2023-04-28T06:02:48.358Z,7.60
2023-04-28T06:05:16.109Z,8.20
2023-04-28T06:07:43.970Z,7.60
2023-04-28T06:10:11.776Z,7.00
2023-04-28T06:12:39.648Z,6.60
2023-04-28T06:15:07.351Z,7.50
2023-04-28T06:17:34.570Z,7.50
2023-04-28T06:20:01.849Z,8.20
2023-04-28T06:22:29.072Z,8.20
2023-04-28T06:24:56.318Z,5.70
2023-04-28T06:27:33.088Z,8.70
2023-04-28T06:30:00.150Z,9.70
2023-04-28T06:32:27.296Z,7.20
2023-04-28T06:34:55.341Z,8.50
2023-04-28T06:37:23.849Z,8.10
2023-04-28T06:39:50.985Z,6.40
2023-04-28T06:42:19.364Z,7.40
2023-04-28T06:44:53.859Z,8.00
2023-04-28T06:47:21.915Z,10.90
2023-04-28T06:49:50.501Z,8.90
2023-04-28T06:52:17.629Z,8.90
2023-04-28T06:54:44.796Z,8.80
2023-04-28T06:57:12.106Z,9.50
2023-04-28T06:59:39.653Z,6.90
2023-04-28T07:02:07.027Z,8.20
2023-04-28T07:04:34.266Z,7.60
2023-04-28T07:07:01.527Z,8.80
2023-04-28T07:09:30.386Z,8.80
2023-04-28T07:11:58.477Z,8.50
2023-04-28T07:14:26.013Z,7.20
2023-04-28T07:16:53.258Z,10.20
2023-04-28T07:19:20.661Z,7.90
2023-04-28T07:21:47.811Z,12.50
2023-04-28T07:24:15.307Z,10.80
2023-04-28T07:26:42.606Z,10.40
2023-04-28T07:29:10.619Z,13.10
2023-04-28T07:31:37.757Z,17.40
2023-04-28T07:34:04.984Z,11.90
2023-04-28T07:36:32.124Z,13.80
2023-04-28T07:39:01.149Z,11.40
2023-04-28T07:41:29.229Z,13.40
2023-04-28T07:43:56.255Z,18.00
2023-04-28T07:46:24.051Z,22.30
2023-04-28T07:48:51.152Z,16.80
2023-04-28T07:51:18.272Z,21.80
2023-04-28T07:53:45.301Z,19.80
2023-04-28T07:56:13.270Z,20.10
2023-04-28T07:58:40.794Z,21.30
2023-04-28T08:01:08.205Z,22.40
2023-04-28T08:03:35.476Z,19.20
2023-04-28T08:06:02.874Z,20.10
2023-04-28T08:08:30.947Z,12.30
2023-04-28T08:10:59.012Z,22.40
2023-04-28T08:13:27.170Z,17.90
2023-04-28T08:15:56.499Z,22.10
2023-04-28T08:18:23.967Z,25.30
2023-04-28T08:20:51.059Z,19.00
2023-04-28T08:23:18.642Z,23.10
2023-04-28T08:25:45.769Z,19.80
2023-04-28T08:28:12.938Z,17.50
2023-04-28T08:30:40.483Z,20.00
2023-04-28T08:33:07.841Z,19.00
2023-04-28T08:35:35.011Z,21.10
2023-04-28T08:38:02.146Z,22.00
2023-04-28T08:40:31.655Z,22.70
2023-04-28T08:43:00.148Z,22.70
2023-04-28T08:45:28.441Z,18.40
2023-04-28T08:47:56.501Z,24.80
2023-04-28T08:50:23.612Z,18.70
2023-04-28T08:52:50.632Z,27.20
2023-04-28T08:55:18.063Z,25.70
2023-04-28T08:57:46.635Z,19.20
2023-04-28T09:00:14.332Z,18.60
2023-04-28T09:02:44.544Z,22.50
2023-04-28T09:05:12.593Z,18.40
2023-04-28T09:07:40.776Z,22.90
2023-04-28T09:10:24.823Z,26.90
2023-04-28T09:12:53.549Z,26.70
2023-04-28T09:15:36.994Z,29.10
2023-04-28T09:18:06.695Z,26.00
2023-04-28T09:20:35.218Z,21.80
2023-04-28T09:23:14.955Z,21.90
2023-04-28T09:26:05.530Z,22.90
2023-04-28T09:28:33.360Z,22.80
2023-04-28T09:31:00.703Z,18.20
2023-04-28T09:33:28.079Z,23.80
2023-04-28T09:38:43.924Z,24.70
2023-04-28T09:41:11.069Z,20.00
2023-04-28T09:43:47.436Z,21.40
2023-04-28T09:46:14.671Z,19.80
2023-04-28T09:48:42.248Z,19.10
2023-04-28T09:51:12.347Z,15.90
2023-04-28T09:53:40.194Z,20.10
2023-04-28T09:56:08.201Z,18.10
2023-04-28T09:58:35.548Z,18.90
2023-04-28T10:01:08.952Z,22.20
2023-04-28T10:03:36.163Z,19.30
2023-04-28T10:06:03.559Z,17.00
2023-04-28T10:08:30.661Z,13.60
2023-04-28T10:10:58.018Z,20.40
2023-04-28T10:13:25.327Z,17.10
2023-04-28T10:16:00.155Z,14.40
2023-04-28T10:18:27.560Z,17.10
2023-04-28T10:21:03.425Z,12.80
2023-04-28T10:24:03.037Z,17.20
2023-04-28T10:26:56.027Z,15.50
2023-04-28T10:29:26.599Z,15.40
2023-04-28T10:32:16.649Z,18.70
2023-04-28T10:34:43.895Z,19.70
2023-04-28T10:37:11.474Z,18.70
2023-04-28T10:39:38.681Z,13.70
2023-04-28T10:42:06.486Z,21.80
2023-04-28T10:44:33.478Z,14.20
2023-04-28T10:47:04.888Z,19.50
2023-04-28T10:49:57.936Z,25.40
2023-04-28T10:52:45.444Z,19.60
2023-04-28T10:55:39.955Z,19.60
2023-04-28T10:58:16.340Z,24.10
2023-04-28T11:00:45.431Z,32.40
2023-04-28T11:03:44.170Z,21.20
2023-04-28T11:06:26.910Z,22.80
2023-04-28T11:09:01.963Z,15.50
2023-04-28T11:11:30.823Z,15.00
2023-04-28T11:14:21.024Z,17.60
2023-04-28T11:17:07.558Z,12.00
2023-04-28T11:19:45.467Z,13.80
2023-04-28T11:22:17.242Z,10.10
2023-04-28T11:25:04.698Z,5.70
2023-04-28T11:27:33.324Z,9.10
2023-04-28T11:30:01.992Z,10.00
2023-04-28T11:32:31.104Z,10.50
2023-04-28T11:34:58.235Z,9.90
2023-04-28T11:37:25.597Z,13.90
2023-04-28T11:39:52.940Z,12.30
2023-04-28T11:42:20.158Z,12.70
2023-04-28T11:44:53.616Z,10.00
2023-04-28T11:47:34.718Z,10.40
2023-04-28T11:50:03.373Z,8.90
2023-04-28T11:52:30.618Z,13.00
2023-04-28T11:54:59.391Z,8.10
2023-04-28T11:57:27.023Z,9.30
2023-04-28T11:59:54.171Z,10.00
2023-04-28T12:02:30.920Z,9.80
2023-04-28T12:05:07.889Z,6.10
2023-04-28T12:07:44.792Z,17.30
2023-04-28T12:10:18.975Z,14.60
2023-04-28T12:12:52.483Z,17.00
2023-04-28T12:15:21.817Z,22.80
2023-04-28T12:17:51.257Z,12.90
2023-04-28T12:20:35.920Z,14.50
2023-04-28T12:25:48.603Z,14.20
2023-04-28T12:28:15.909Z,16.70
2023-04-28T12:30:43.853Z,17.10
2023-04-28T12:33:25.375Z,18.40
2023-04-28T12:35:55.172Z,18.50
2023-04-28T12:38:26.084Z,17.40
2023-04-28T12:40:53.513Z,25.50
2023-04-28T12:43:23.323Z,18.60
2023-04-28T12:45:52.042Z,17.90
2023-04-28T12:48:19.341Z,15.40
2023-04-28T12:50:46.777Z,22.90
2023-04-28T12:53:14.255Z,27.30
2023-04-28T12:55:41.294Z,19.20
2023-04-28T12:58:08.833Z,18.10
2023-04-28T13:00:36.340Z,16.30
2023-04-28T13:03:03.711Z,20.10
2023-04-28T13:05:32.337Z,17.40
2023-04-28T13:07:59.855Z,13.70
2023-04-28T13:10:27.145Z,12.20
2023-04-28T13:12:54.248Z,13.60
2023-04-28T13:15:21.597Z,10.40
2023-04-28T13:17:49.384Z,9.60
2023-04-28T13:20:16.583Z,9.20
2023-04-28T13:22:44.036Z,9.60
2023-04-28T13:25:11.789Z,15.00
2023-04-28T13:27:40.066Z,10.10
2023-04-28T13:30:09.466Z,16.80
2023-04-28T13:32:36.600Z,15.90
2023-04-28T13:35:03.974Z,17.40
2023-04-28T13:37:32.103Z,16.10
2023-04-28T13:39:59.635Z,17.80
2023-04-28T13:42:26.934Z,19.10
2023-04-28T13:44:54.106Z,14.90
2023-04-28T13:47:21.364Z,18.50
2023-04-28T13:49:48.857Z,16.90
2023-04-28T13:52:16.090Z,13.30
2023-04-28T13:54:43.297Z,19.00
2023-04-28T13:57:10.468Z,9.30
2023-04-28T13:59:37.832Z,15.60
2023-04-28T14:02:05.204Z,10.20
2023-04-28T14:04:32.827Z,7.30
2023-04-28T14:07:00.324Z,6.00
2023-04-28T14:09:27.553Z,6.80
2023-04-28T14:11:56.951Z,4.90
2023-04-28T14:14:24.097Z,3.50
2023-04-28T14:16:51.406Z,4.40
2023-04-28T14:19:18.845Z,4.50
2023-04-28T14:21:46.067Z,4.60
2023-04-28T14:24:13.212Z,4.80
2023-04-28T14:26:40.738Z,7.70
2023-04-28T14:29:08.330Z,8.70
2023-04-28T14:31:35.451Z,5.60
2023-04-28T14:34:04.082Z,9.10
2023-04-28T14:36:33.174Z,4.90
2023-04-28T14:39:00.325Z,5.20
2023-04-28T14:41:27.466Z,4.40
2023-04-28T14:43:54.713Z,5.10
2023-04-28T14:46:23.275Z,5.60
2023-04-28T14:48:51.252Z,6.90
2023-04-28T14:51:19.029Z,7.20
2023-04-28T14:53:46.174Z,6.00
2023-04-28T14:56:19.079Z,7.60
2023-04-28T14:58:47.860Z,8.20
2023-04-28T15:01:15.046Z,8.10
2023-04-28T15:03:43.670Z,8.20
2023-04-28T15:06:12.277Z,9.10
2023-04-28T15:08:40.646Z,8.40
2023-04-28T15:11:07.905Z,10.80
2023-04-28T15:13:35.564Z,8.50
2023-04-28T15:16:03.091Z,7.10
2023-04-28T15:18:30.272Z,11.10
2023-04-28T15:20:57.421Z,10.30
2023-04-28T15:23:24.470Z,12.60
2023-04-28T15:25:53.908Z,9.30
2023-04-28T15:28:21.225Z,9.60
2023-04-28T15:30:48.400Z,9.60
2023-04-28T15:33:17.927Z,12.00
2023-04-28T15:35:45.131Z,7.70
2023-04-28T15:38:12.598Z,11.00
2023-04-28T15:40:40.637Z,7.80
2023-04-28T15:43:08.143Z,7.10
2023-04-28T15:45:35.199Z,8.20
2023-04-28T15:48:02.348Z,5.60
2023-04-28T15:50:29.774Z,5.10
2023-04-28T15:52:57.246Z,7.60
2023-04-28T15:55:25.359Z,8.80
2023-04-28T15:57:53.114Z,6.60
2023-04-28T16:00:20.742Z,10.10
2023-04-28T16:02:48.020Z,6.90
2023-04-28T16:05:15.340Z,9.10
2023-04-28T16:07:42.642Z,6.10
2023-04-28T16:10:14.770Z,8.30
2023-04-28T16:12:42.698Z,5.40
2023-04-28T16:15:11.324Z,7.60
2023-04-28T16:17:38.774Z,7.20
2023-04-28T16:20:07.567Z,5.90
2023-04-28T16:22:35.914Z,6.20
2023-04-28T16:25:06.818Z,6.50
2023-04-28T16:27:34.243Z,8.70
2023-04-28T16:30:01.643Z,13.60
2023-04-28T16:32:29.122Z,8.70
2023-04-28T16:34:58.166Z,7.30
2023-04-28T16:37:25.724Z,6.60
2023-04-28T16:39:52.941Z,7.40
2023-04-28T16:42:23.004Z,6.40
2023-04-28T16:44:52.730Z,7.20
2023-04-28T16:47:20.820Z,9.90
2023-04-28T16:49:48.346Z,8.90
2023-04-28T16:52:15.780Z,10.10
2023-04-28T16:54:43.185Z,10.40
2023-04-28T16:57:10.275Z,21.50
2023-04-28T16:59:37.318Z,9.50
2023-04-28T17:02:04.405Z,9.20
2023-04-28T17:04:32.231Z,9.00
2023-04-28T17:06:59.696Z,9.10
2023-04-28T17:09:27.744Z,8.40
2023-04-28T17:11:55.457Z,9.00
2023-04-28T17:14:22.687Z,8.30
2023-04-28T17:16:49.755Z,9.20
2023-04-28T17:19:17.015Z,5.30
2023-04-28T17:21:44.233Z,6.60
2023-04-28T17:24:12.095Z,6.80
2023-04-28T17:26:39.205Z,7.80
2023-04-28T17:29:07.064Z,9.30
2023-04-28T17:31:35.321Z,6.50
2023-04-28T17:34:03.969Z,5.50
2023-04-28T17:36:32.452Z,9.70
2023-04-28T17:38:59.699Z,7.80
2023-04-28T17:41:26.852Z,6.70
2023-04-28T17:43:53.998Z,12.80
2023-04-28T17:46:22.096Z,10.60
2023-04-28T17:48:49.591Z,8.30
2023-04-28T17:51:16.991Z,9.10
2023-04-28T17:53:46.358Z,8.90
2023-04-28T17:56:13.445Z,8.40
2023-04-28T17:58:40.948Z,7.60
2023-04-28T18:01:08.441Z,7.70
2023-04-28T18:03:36.404Z,7.00
2023-04-28T18:06:06.203Z,8.40
2023-04-28T18:08:34.197Z,9.00
2023-04-28T18:11:01.528Z,7.90
2023-04-28T18:13:28.705Z,6.50
2023-04-28T18:15:55.834Z,6.90
2023-04-28T18:18:23.424Z,13.30
2023-04-28T18:20:51.426Z,8.40
2023-04-28T18:23:18.635Z,6.80
2023-04-28T18:25:45.885Z,9.20
2023-04-28T18:28:13.170Z,7.10
2023-04-28T18:30:40.164Z,10.30
2023-04-28T18:33:07.944Z,7.20
2023-04-28T18:35:36.894Z,7.30
2023-04-28T18:38:05.248Z,10.40
2023-04-28T18:40:34.375Z,10.70
2023-04-28T18:43:02.432Z,6.90
2023-04-28T18:45:34.469Z,11.30
2023-04-28T18:48:02.706Z,10.80
2023-04-28T18:50:30.677Z,10.60
2023-04-28T18:52:59.573Z,12.60
2023-04-28T18:55:27.014Z,9.10
2023-04-28T18:57:54.239Z,8.70
2023-04-28T19:00:21.838Z,10.40
2023-04-28T19:02:49.126Z,10.20
2023-04-28T19:05:16.575Z,8.50
2023-04-28T19:07:44.641Z,10.30
2023-04-28T19:10:12.722Z,8.90
2023-04-28T19:12:39.912Z,12.50
2023-04-28T19:15:07.711Z,14.50
2023-04-28T19:17:34.949Z,10.80
2023-04-28T19:20:04.248Z,11.20
2023-04-28T19:22:38.769Z,10.40
2023-04-28T19:25:06.961Z,10.00
2023-04-28T19:27:35.538Z,10.30
2023-04-28T19:30:03.459Z,11.50
2023-04-28T19:32:30.629Z,9.50
2023-04-28T19:34:57.704Z,12.50
2023-04-28T19:37:25.698Z,11.50
2023-04-28T19:39:53.039Z,11.00
2023-04-28T19:42:20.205Z,12.90
2023-04-28T19:44:47.772Z,12.10
2023-04-28T19:47:25.781Z,9.80
2023-04-28T19:49:53.856Z,11.70
2023-04-28T19:52:21.090Z,13.40
2023-04-28T19:54:51.557Z,12.20
2023-04-28T19:57:19.244Z,11.50
2023-04-28T19:59:47.579Z,10.50
2023-04-28T20:02:15.779Z,13.20
2023-04-28T20:04:43.444Z,13.30
2023-04-28T20:07:11.672Z,11.70
2023-04-28T20:09:39.169Z,13.90
2023-04-28T20:12:08.079Z,12.10
2023-04-28T20:14:35.434Z,12.30
2023-04-28T20:17:03.773Z,12.10
2023-04-28T20:19:31.336Z,9.50
2023-04-28T20:21:58.398Z,9.40
2023-04-28T20:24:25.511Z,9.70
2023-04-28T20:26:54.788Z,7.70
2023-04-28T20:29:22.075Z,11.40
2023-04-28T20:31:50.577Z,6.50
2023-04-28T20:34:18.408Z,9.60
2023-04-28T20:36:45.479Z,7.90
2023-04-28T20:39:13.222Z,7.10
2023-04-28T20:41:41.296Z,9.20
2023-04-28T20:44:08.762Z,8.50
2023-04-28T20:46:36.368Z,8.60
2023-04-28T20:49:04.569Z,12.50
2023-04-28T20:51:35.245Z,8.90
2023-04-28T20:54:04.149Z,9.60
2023-04-28T20:56:31.263Z,9.40
2023-04-28T20:58:58.466Z,10.50
2023-04-28T21:01:55.878Z,9.20
2023-04-28T21:04:23.078Z,10.20
2023-04-28T21:06:51.571Z,8.90
2023-04-28T21:09:18.694Z,11.30
2023-04-28T21:11:45.935Z,12.10
2023-04-28T21:14:15.134Z,8.10
2023-04-28T21:16:43.774Z,9.50
2023-04-28T21:19:11.003Z,9.10
2023-04-28T21:21:38.332Z,9.40
2023-04-28T21:24:06.321Z,8.50
2023-04-28T21:26:33.604Z,9.80
2023-04-28T21:29:01.595Z,10.00
2023-04-28T21:31:28.665Z,15.20
2023-04-28T21:33:55.671Z,11.30
2023-04-28T21:36:22.635Z,10.80
2023-04-28T21:38:49.620Z,8.10
2023-04-28T21:41:16.619Z,9.40
2023-04-28T21:43:43.600Z,13.50
2023-04-28T21:46:11.532Z,10.30
2023-04-28T21:48:38.801Z,9.10
2023-04-28T21:51:05.816Z,11.40
2023-04-28T21:53:32.874Z,9.30
2023-04-28T21:55:59.872Z,12.90
2023-04-28T21:58:27.213Z,11.20
2023-04-28T22:00:55.229Z,9.00
2023-04-28T22:03:22.554Z,11.50
2023-04-28T22:05:49.735Z,12.10
2023-04-28T22:08:17.273Z,9.50
2023-04-28T22:10:45.727Z,11.60
2023-04-28T22:13:13.212Z,12.40
2023-04-28T22:15:40.410Z,16.20
2023-04-28T22:18:08.407Z,15.30
2023-04-28T22:20:35.962Z,16.60
2023-04-28T22:23:03.385Z,15.60
2023-04-28T22:25:30.517Z,16.40
2023-04-28T22:27:57.494Z,15.30
2023-04-28T22:30:26.093Z,14.60
2023-04-28T22:32:53.629Z,16.60
2023-04-28T22:35:20.725Z,14.30
2023-04-28T22:37:47.815Z,17.80
2023-04-28T22:40:14.926Z,18.40
2023-04-28T22:42:42.416Z,24.90
2023-04-28T22:45:10.235Z,22.30
2023-04-28T22:47:38.560Z,17.10
2023-04-28T22:50:07.247Z,15.20
2023-04-28T22:52:34.400Z,15.90
2023-04-28T22:55:01.425Z,17.30
2023-04-28T22:57:28.717Z,10.70
2023-04-28T22:59:56.165Z,14.30
2023-04-28T23:02:23.709Z,11.80
2023-04-28T23:04:51.185Z,11.70
2023-04-28T23:07:18.444Z,11.60
2023-04-28T23:09:45.548Z,11.90
2023-04-28T23:12:12.515Z,13.00
2023-04-28T23:14:39.558Z,12.30
2023-04-28T23:17:06.627Z,12.80
2023-04-28T23:19:35.730Z,10.70
2023-04-28T23:22:02.816Z,15.10
2023-04-28T23:24:29.863Z,12.00
2023-04-28T23:26:56.916Z,12.40
2023-04-28T23:29:24.056Z,14.40
2023-04-28T23:31:54.764Z,10.30
2023-04-28T23:34:23.091Z,14.10
2023-04-28T23:36:50.616Z,9.90
2023-04-28T23:39:17.640Z,11.60
2023-04-28T23:41:44.667Z,11.80
2023-04-28T23:44:11.809Z,9.90
2023-04-28T23:46:38.817Z,15.90
2023-04-28T23:49:05.820Z,12.80
2023-04-28T23:51:33.006Z,10.00
2023-04-28T23:54:00.181Z,10.60
2023-04-28T23:56:27.331Z,11.30
2023-04-28T23:58:54.478Z,8.50
